KMIW/MIW METAR and TAF weather

Enter ICAO airport designator
Station Type Date Time Source
KMIW METAR 2022/12/05 13:53 UTC NOAA

KMIW 051353Z AUTO 00000KT 10SM BKN110 00/M06 A2979 RMK AO2 SLP097 T00001061


Station Type Date Time Source
KMIW Decoded METAR 2022/12/05 13:53 UTC NOAA

MARSHALLTOWN MUNICIPAL AIRPORT , IA, United States (KMIW) 42-07N 92-55W 296M
Dec 05, 2022 - 08:53 AM EST / 2022.12.05 1353 UTC
Wind: Calm:0
Visibility: 10 mile(s):0
Sky conditions: mostly cloudy
Temperature: 32.0 F (0.0 C)
Dew Point: 21.0 F (-6.1 C)
Relative Humidity: 63%
Pressure (altimeter): 29.79 in. Hg (1008 hPa)
ob: KMIW 051353Z AUTO 00000KT 10SM BKN110 00/M06 A2979 RMK AO2 SLP097 T00001061
cycle: 14

Station Type Date Time Source
KMIW TAF UTC NOAA

Error!

Example: see airport list